createdAt,value
2023-02-20T00:07:50.108Z,3.35
2023-02-20T00:17:59.120Z,4.20
2023-02-20T00:28:06.189Z,4.43
2023-02-20T00:38:14.575Z,4.35
2023-02-20T00:48:21.318Z,3.40
2023-02-20T00:58:30.126Z,3.63
2023-02-20T01:08:37.473Z,4.65
2023-02-20T01:18:46.523Z,2.85
2023-02-20T01:28:53.258Z,4.88
2023-02-20T01:39:01.750Z,4.35
2023-02-20T01:49:12.427Z,3.90
2023-02-20T01:59:22.413Z,4.82
2023-02-20T02:09:41.165Z,3.55
2023-02-20T02:20:24.947Z,4.15
2023-02-20T02:31:04.142Z,3.30
2023-02-20T02:41:23.737Z,3.70
2023-02-20T02:51:36.242Z,4.13
2023-02-20T03:01:48.953Z,3.72
2023-02-20T03:11:56.927Z,3.85
2023-02-20T03:22:10.690Z,3.55
2023-02-20T03:32:38.198Z,3.78
2023-02-20T03:43:06.963Z,4.28
2023-02-20T03:53:17.602Z,5.70
2023-02-20T04:03:29.516Z,5.60
2023-02-20T04:13:37.872Z,4.85
2023-02-20T04:23:50.360Z,4.60
2023-02-20T04:33:59.901Z,5.05
2023-02-20T04:44:25.705Z,4.72
2023-02-20T04:54:35.112Z,7.00
2023-02-20T05:04:44.967Z,4.07
2023-02-20T05:14:52.885Z,3.13
2023-02-20T05:25:01.860Z,4.00
2023-02-20T05:35:09.241Z,3.35
2023-02-20T05:45:18.069Z,5.10
2023-02-20T05:55:24.748Z,4.32
2023-02-20T06:05:33.099Z,3.08
2023-02-20T06:15:39.881Z,3.13
2023-02-20T06:25:48.841Z,3.45
2023-02-20T06:35:56.116Z,4.40
2023-02-20T06:46:04.452Z,3.35
2023-02-20T06:56:12.737Z,3.60
2023-02-20T07:06:21.663Z,4.35
2023-02-20T07:16:29.098Z,3.03
2023-02-20T07:26:40.337Z,3.30
2023-02-20T07:36:47.055Z,3.78
2023-02-20T07:46:55.500Z,2.95
2023-02-20T07:57:02.162Z,3.45
2023-02-20T08:07:10.445Z,4.63
2023-02-20T08:17:17.228Z,4.07
2023-02-20T08:27:26.056Z,4.22
2023-02-20T08:37:32.878Z,4.43
2023-02-20T08:47:41.209Z,3.65
2023-02-20T08:57:47.853Z,4.13
2023-02-20T09:07:56.888Z,4.63
2023-02-20T09:18:03.769Z,3.50
2023-02-20T09:28:12.682Z,3.35
2023-02-20T09:38:19.584Z,4.13
2023-02-20T09:48:42.768Z,4.75
2023-02-20T09:58:55.627Z,4.60
2023-02-20T10:09:04.697Z,4.03
2023-02-20T10:19:19.464Z,3.47
2023-02-20T10:29:31.709Z,3.50
2023-02-20T10:39:39.372Z,3.08
2023-02-20T10:49:54.527Z,3.55
2023-02-20T11:00:06.150Z,4.07
2023-02-20T11:10:14.799Z,2.95
2023-02-20T11:20:42.364Z,2.70
2023-02-20T11:30:55.287Z,2.63
2023-02-20T11:41:27.882Z,3.95
2023-02-20T11:51:43.761Z,3.55
2023-02-20T12:02:00.634Z,3.20
2023-02-20T12:12:14.615Z,2.22
2023-02-20T12:22:28.967Z,2.85
2023-02-20T12:32:53.511Z,1.95
2023-02-20T12:43:11.035Z,2.78
2023-02-20T12:53:35.593Z,2.95
2023-02-20T13:03:53.088Z,1.60
2023-02-20T13:14:09.431Z,2.45
2023-02-20T13:24:34.473Z,3.03
2023-02-20T13:34:44.844Z,1.48
2023-02-20T13:44:51.688Z,1.45
2023-02-20T13:55:00.934Z,1.38
2023-02-20T14:05:10.201Z,1.40
2023-02-20T14:15:18.640Z,1.60
2023-02-20T14:25:28.346Z,1.63
2023-02-20T14:35:51.256Z,1.15
2023-02-20T14:46:06.035Z,1.23
2023-02-20T14:56:19.805Z,1.33
2023-02-20T15:06:27.340Z,0.65
2023-02-20T15:16:40.951Z,0.70
2023-02-20T15:26:48.137Z,0.60
2023-02-20T15:36:57.111Z,0.70
2023-02-20T15:47:03.802Z,0.45
2023-02-20T15:57:19.218Z,0.68
2023-02-20T16:07:25.987Z,0.45
2023-02-20T16:17:37.033Z,0.90
2023-02-20T16:27:43.939Z,1.33
2023-02-20T16:37:52.866Z,0.93
2023-02-20T16:48:00.265Z,0.63
2023-02-20T16:58:13.349Z,3.22
2023-02-20T17:08:22.745Z,1.50
2023-02-20T17:18:31.031Z,1.20
2023-02-20T17:28:37.764Z,2.63
2023-02-20T17:39:12.242Z,1.15
2023-02-20T17:49:19.448Z,1.38
2023-02-20T17:59:28.272Z,0.63
2023-02-20T18:09:36.314Z,0.82
2023-02-20T18:19:45.183Z,1.10
2023-02-20T18:29:51.885Z,0.50
2023-02-20T18:40:01.096Z,0.90
2023-02-20T18:50:08.235Z,0.65
2023-02-20T19:00:19.820Z,0.50
2023-02-20T19:10:28.736Z,0.45
2023-02-20T19:20:37.462Z,0.60
2023-02-20T19:30:44.822Z,0.60
2023-02-20T19:40:54.173Z,1.05
2023-02-20T19:51:00.996Z,0.68
2023-02-20T20:01:09.379Z,0.40
2023-02-20T20:11:16.372Z,0.50
2023-02-20T20:21:27.191Z,0.60
2023-02-20T20:31:38.928Z,2.22
2023-02-20T20:41:48.522Z,1.20
2023-02-20T20:52:00.323Z,1.50
2023-02-20T21:02:08.671Z,1.65
2023-02-20T21:12:17.717Z,1.67
2023-02-20T21:22:26.099Z,2.28
2023-02-20T21:32:33.145Z,1.83
2023-02-20T21:42:58.824Z,0.70
2023-02-20T21:53:08.783Z,1.95
2023-02-20T22:03:16.196Z,1.52
2023-02-20T22:13:39.471Z,2.08
2023-02-20T22:35:05.757Z,1.38
2023-02-20T22:45:38.439Z,1.95
2023-02-20T22:56:01.701Z,1.25
2023-02-20T23:06:26.878Z,1.33
2023-02-20T23:16:50.213Z,1.48
2023-02-20T23:27:15.791Z,0.88
2023-02-20T23:37:39.441Z,1.17
2023-02-20T23:48:07.388Z,1.23
2023-02-20T23:58:30.998Z,1.58
